Time;durP1;ratioP1;P1;durP2;ratioP2;P2;SDS_P1;SDS_P2;PMS_P1;PMS_P2;Temp;Humidity;BMP_temperature;BMP_pressure;BME280_temperature;BME280_humidity;BME280_pressure;Samples;Min_cycle;Max_cycle;Signal;HPM_P1;HPM_P2
2021/11/06 00:00:44;;;;;;;33.80;19.13;;;4.10;99.90;;;;;;5054281;28;20310;-61
2021/11/06 00:03:13;;;;;;;31.60;19.07;;;4.10;99.90;;;;;;5063544;28;20184;-61
2021/11/06 00:05:41;;;;;;;36.03;19.37;;;4.00;99.90;;;;;;5062446;28;20231;-61
2021/11/06 00:08:10;;;;;;;33.63;19.07;;;4.10;99.90;;;;;;5065002;28;20269;-61
2021/11/06 00:10:38;;;;;;;36.70;19.50;;;4.10;99.90;;;;;;5064652;28;20200;-61
2021/11/06 00:13:07;;;;;;;31.40;19.13;;;4.10;99.90;;;;;;5061529;28;20308;-61
2021/11/06 00:15:36;;;;;;;33.80;19.27;;;4.10;99.90;;;;;;5082176;28;20228;-61
2021/11/06 00:18:06;;;;;;;37.40;20.83;;;4.20;99.90;;;;;;5042772;28;20193;-61
2021/11/06 00:20:35;;;;;;;37.07;19.37;;;4.20;99.90;;;;;;5064997;28;20285;-61
2021/11/06 00:23:04;;;;;;;35.13;20.07;;;4.20;99.90;;;;;;5062239;28;20271;-61
2021/11/06 00:25:33;;;;;;;34.70;19.30;;;4.30;99.90;;;;;;5068041;28;20246;-61
2021/11/06 00:28:02;;;;;;;34.53;18.63;;;4.30;99.90;;;;;;5060794;28;20288;-61
2021/11/06 00:30:30;;;;;;;37.07;19.83;;;4.30;99.90;;;;;;5073571;28;20188;-61
2021/11/06 00:32:58;;;;;;;33.43;19.83;;;4.30;99.90;;;;;;5065540;28;20216;-61
2021/11/06 00:35:28;;;;;;;33.30;19.60;;;4.30;99.90;;;;;;5063519;28;20199;-61
2021/11/06 00:37:57;;;;;;;40.67;20.10;;;4.20;99.90;;;;;;5067395;28;20200;-61
2021/11/06 00:40:25;;;;;;;32.23;18.97;;;4.30;99.90;;;;;;5049278;28;20196;-61
2021/11/06 00:42:54;;;;;;;35.70;18.67;;;4.20;99.90;;;;;;5062581;28;20199;-61
2021/11/06 00:45:23;;;;;;;38.03;18.90;;;4.20;99.90;;;;;;5071216;28;20227;-61
2021/11/06 00:47:51;;;;;;;32.67;18.60;;;4.20;99.90;;;;;;5068008;28;20188;-61
2021/11/06 00:50:20;;;;;;;30.07;18.60;;;4.30;99.90;;;;;;5061505;28;20197;-61
2021/11/06 00:52:51;;;;;;;30.07;18.03;;;4.30;99.90;;;;;;5063575;28;20223;-61
2021/11/06 00:55:19;;;;;;;31.23;19.00;;;4.30;99.90;;;;;;5062748;28;20257;-61
2021/11/06 00:57:48;;;;;;;35.13;19.10;;;4.30;99.90;;;;;;5066654;28;20204;-61
2021/11/06 01:00:18;;;;;;;33.70;18.73;;;4.30;99.90;;;;;;5057949;28;20242;-61
2021/11/06 01:03:10;;;;;;;30.07;18.90;;;4.20;99.90;;;;;;5061173;28;20207;-60
2021/11/06 01:05:38;;;;;;;37.30;19.20;;;4.20;99.90;;;;;;5061711;28;20189;-61
2021/11/06 01:08:08;;;;;;;32.93;18.67;;;4.20;99.90;;;;;;5064355;28;20511;-61
2021/11/06 01:10:37;;;;;;;34.37;20.00;;;4.20;99.90;;;;;;5049992;28;20196;-61
2021/11/06 01:13:06;;;;;;;32.67;18.77;;;4.20;99.90;;;;;;5046360;28;20220;-61
2021/11/06 01:15:34;;;;;;;35.63;18.00;;;4.10;99.90;;;;;;5047373;28;20318;-61
2021/11/06 01:18:03;;;;;;;32.77;18.20;;;4.10;99.90;;;;;;5079115;28;20242;-61
2021/11/06 01:20:32;;;;;;;33.00;18.13;;;4.10;99.90;;;;;;5066079;28;20196;-61
2021/11/06 01:23:00;;;;;;;35.60;18.40;;;4.10;99.90;;;;;;5065577;28;20250;-61
2021/11/06 01:25:30;;;;;;;35.53;19.43;;;4.10;99.90;;;;;;5063688;28;20235;-61
2021/11/06 01:27:58;;;;;;;29.53;18.80;;;4.10;99.90;;;;;;5045840;28;20840;-61
2021/11/06 01:30:27;;;;;;;31.27;17.57;;;4.10;99.90;;;;;;5067236;28;21432;-61
2021/11/06 01:32:55;;;;;;;31.97;18.03;;;4.10;99.90;;;;;;5048160;28;20283;-61
2021/11/06 01:35:23;;;;;;;30.50;18.87;;;4.00;99.90;;;;;;5078046;28;20554;-61
2021/11/06 01:37:59;;;;;;;32.50;18.37;;;4.10;99.90;;;;;;5061974;28;20196;-61
2021/11/06 01:40:29;;;;;;;36.83;18.77;;;4.00;99.90;;;;;;5065154;28;20208;-61
2021/11/06 01:42:58;;;;;;;35.17;18.10;;;4.00;99.90;;;;;;5065386;28;20283;-61
2021/11/06 01:45:27;;;;;;;36.00;18.40;;;4.00;99.90;;;;;;5063135;28;20234;-60
2021/11/06 01:47:56;;;;;;;32.50;18.53;;;4.00;99.90;;;;;;5063269;28;20205;-61
2021/11/06 01:50:26;;;;;;;34.27;19.20;;;4.10;99.90;;;;;;5068967;28;20200;-61
2021/11/06 01:52:54;;;;;;;33.13;18.50;;;4.10;99.90;;;;;;5066369;28;20716;-61
2021/11/06 01:55:23;;;;;;;38.93;18.73;;;4.10;99.90;;;;;;5065171;28;20232;-61
2021/11/06 01:57:53;;;;;;;27.17;17.60;;;4.10;99.90;;;;;;5067250;28;20212;-61
2021/11/06 02:00:24;;;;;;;30.03;16.93;;;4.10;99.90;;;;;;5063203;28;20199;-61
2021/11/06 02:02:53;;;;;;;33.23;17.93;;;4.10;99.90;;;;;;5065480;28;20215;-61
2021/11/06 02:05:24;;;;;;;31.30;17.50;;;4.00;99.90;;;;;;5065335;28;20188;-61
2021/11/06 02:07:53;;;;;;;27.90;17.27;;;4.10;99.90;;;;;;5064377;28;20200;-61
2021/11/06 02:10:22;;;;;;;35.67;17.27;;;4.10;99.90;;;;;;5042424;28;20193;-61
2021/11/06 02:12:53;;;;;;;30.30;17.33;;;4.00;99.90;;;;;;5074009;28;20197;-61
2021/11/06 02:15:22;;;;;;;30.50;18.20;;;4.00;99.90;;;;;;5060152;28;20229;-61
2021/11/06 02:17:50;;;;;;;30.37;17.27;;;3.90;99.90;;;;;;5067048;28;20208;-60
2021/11/06 02:20:21;;;;;;;31.00;16.97;;;3.90;99.90;;;;;;5065469;28;20583;-61
2021/11/06 02:22:51;;;;;;;33.17;17.00;;;3.90;99.90;;;;;;5049459;28;20666;-61
2021/11/06 02:25:21;;;;;;;29.13;16.80;;;3.90;99.90;;;;;;5064899;28;20200;-61
2021/11/06 02:28:09;;;;;;;27.47;16.90;;;3.90;99.90;;;;;;5064164;28;20294;-61
2021/11/06 02:30:37;;;;;;;32.33;17.17;;;3.90;99.90;;;;;;5066247;28;20730;-61
2021/11/06 02:33:06;;;;;;;28.03;16.77;;;3.90;99.90;;;;;;5060596;28;20606;-61
2021/11/06 02:35:35;;;;;;;29.10;16.40;;;3.80;99.90;;;;;;5065392;28;20282;-61
2021/11/06 02:38:06;;;;;;;30.87;17.03;;;3.90;99.90;;;;;;5075943;28;20216;-61
2021/11/06 02:40:34;;;;;;;28.20;17.00;;;3.80;99.90;;;;;;5061337;28;20196;-61
2021/11/06 02:43:03;;;;;;;30.53;16.67;;;3.90;99.90;;;;;;5078875;28;20700;-61
2021/11/06 02:45:32;;;;;;;31.03;16.53;;;3.80;99.90;;;;;;5064567;28;20266;-61
2021/11/06 02:48:00;;;;;;;28.07;17.07;;;3.80;99.90;;;;;;5062753;28;20659;-61
2021/11/06 02:50:29;;;;;;;27.20;16.00;;;3.80;99.90;;;;;;5064402;28;20292;-61
2021/11/06 02:52:58;;;;;;;25.87;16.33;;;3.80;99.90;;;;;;5064114;28;20246;-60
2021/11/06 02:55:28;;;;;;;32.43;16.87;;;3.80;99.90;;;;;;5067795;28;20254;-61
2021/11/06 02:57:57;;;;;;;31.67;16.57;;;3.80;99.90;;;;;;5060025;28;20193;-61
2021/11/06 03:00:28;;;;;;;29.50;16.63;;;3.80;99.90;;;;;;5064131;28;20232;-61
2021/11/06 03:02:57;;;;;;;34.73;16.43;;;3.70;99.90;;;;;;5065675;28;20212;-62
2021/11/06 03:05:26;;;;;;;30.83;16.77;;;3.70;99.90;;;;;;5064035;28;20207;-61
2021/11/06 03:07:58;;;;;;;25.53;15.70;;;3.80;99.90;;;;;;5063206;28;20214;-60
2021/11/06 03:10:28;;;;;;;23.80;15.63;;;3.80;99.90;;;;;;5065378;28;20620;-61
2021/11/06 03:12:57;;;;;;;32.27;16.43;;;3.80;99.90;;;;;;5064645;28;20246;-61
2021/11/06 03:15:25;;;;;;;25.23;15.37;;;3.80;99.90;;;;;;5066206;28;20216;-61
2021/11/06 03:17:54;;;;;;;29.07;15.87;;;3.80;99.90;;;;;;5063597;28;20215;-61
2021/11/06 03:20:22;;;;;;;32.70;16.50;;;3.80;99.90;;;;;;5029902;28;20250;-61
2021/11/06 03:22:57;;;;;;;28.03;16.17;;;3.90;99.90;;;;;;5042873;28;20208;-61
2021/11/06 03:25:27;;;;;;;32.77;16.00;;;3.80;99.90;;;;;;5060256;28;20245;-61
2021/11/06 03:27:57;;;;;;;23.13;14.53;;;3.90;99.90;;;;;;5061668;28;20535;-61
2021/11/06 03:30:25;;;;;;;26.43;14.70;;;3.90;99.90;;;;;;5062826;28;20593;-61
2021/11/06 03:32:54;;;;;;;26.10;14.87;;;3.90;99.90;;;;;;5062302;28;20664;-61
2021/11/06 03:35:23;;;;;;;28.87;14.63;;;3.90;99.90;;;;;;5061480;28;20224;-61
2021/11/06 03:37:58;;;;;;;26.30;14.13;;;3.90;99.90;;;;;;5046364;28;20201;-61
2021/11/06 03:40:28;;;;;;;25.60;14.30;;;3.90;99.90;;;;;;5066237;28;20551;-61
2021/11/06 03:42:57;;;;;;;27.17;13.73;;;3.90;99.90;;;;;;5059954;28;20208;-61
2021/11/06 03:45:26;;;;;;;23.00;13.87;;;3.90;99.90;;;;;;5063925;28;20204;-60
2021/11/06 03:47:54;;;;;;;25.83;13.30;;;4.00;99.90;;;;;;5065487;28;20733;-60
2021/11/06 03:50:23;;;;;;;25.17;13.87;;;4.00;99.90;;;;;;5065447;28;20254;-61
2021/11/06 03:52:51;;;;;;;25.47;13.63;;;4.10;99.90;;;;;;5047551;28;20261;-61
2021/11/06 03:55:21;;;;;;;22.43;13.40;;;4.10;99.90;;;;;;5063707;28;20227;-61
2021/11/06 03:57:51;;;;;;;21.90;12.57;;;4.20;99.90;;;;;;5064434;28;20204;-61
2021/11/06 04:00:20;;;;;;;25.00;13.03;;;4.20;99.90;;;;;;5062231;28;20192;-61
2021/11/06 04:02:49;;;;;;;23.23;13.37;;;4.20;99.90;;;;;;5062708;28;20208;-61
2021/11/06 04:05:18;;;;;;;27.23;13.90;;;4.30;99.90;;;;;;5061479;28;20207;-61
2021/11/06 04:07:46;;;;;;;22.27;12.57;;;4.30;99.90;;;;;;5064660;28;20232;-61
2021/11/06 04:10:15;;;;;;;22.97;13.50;;;4.40;99.90;;;;;;5046153;28;20226;-61
2021/11/06 04:12:45;;;;;;;20.93;12.10;;;4.40;99.90;;;;;;5061598;28;20253;-61
2021/11/06 04:15:15;;;;;;;23.17;11.73;;;4.40;99.90;;;;;;5061159;28;20234;-61
2021/11/06 04:17:44;;;;;;;19.40;11.67;;;4.40;99.90;;;;;;5048256;28;20636;-61
2021/11/06 04:20:12;;;;;;;28.70;11.60;;;4.40;99.90;;;;;;5064862;28;20601;-61
2021/11/06 04:22:41;;;;;;;19.37;11.17;;;4.40;99.90;;;;;;5048608;28;20196;-61
2021/11/06 04:25:12;;;;;;;17.87;10.90;;;4.40;99.90;;;;;;5063952;28;20262;-60
2021/11/06 04:27:40;;;;;;;21.27;11.53;;;4.50;99.90;;;;;;5063740;28;20196;-61
2021/11/06 04:30:09;;;;;;;24.17;11.77;;;4.50;99.90;;;;;;5065099;28;20223;-61
2021/11/06 04:32:39;;;;;;;17.07;10.50;;;4.50;99.90;;;;;;5048793;28;20195;-61
2021/11/06 04:35:08;;;;;;;19.23;10.97;;;4.60;99.90;;;;;;5067393;28;20220;-61
2021/11/06 04:37:37;;;;;;;16.13;9.73;;;4.60;99.90;;;;;;5065653;28;20690;-60
2021/11/06 04:40:08;;;;;;;21.83;10.90;;;4.60;99.90;;;;;;5047933;28;20269;-61
2021/11/06 04:42:38;;;;;;;16.77;10.93;;;4.70;99.90;;;;;;5066315;28;20272;-61
2021/11/06 04:45:08;;;;;;;16.93;10.83;;;4.60;99.90;;;;;;5078578;28;20585;-61
2021/11/06 04:47:38;;;;;;;17.03;9.93;;;4.60;99.90;;;;;;5066332;28;20715;-61
2021/11/06 04:50:10;;;;;;;17.83;10.23;;;4.60;99.90;;;;;;5067479;28;20663;-61
2021/11/06 04:52:39;;;;;;;16.07;10.07;;;4.70;99.90;;;;;;5065602;28;20738;-62
2021/11/06 04:55:11;;;;;;;15.47;9.73;;;4.70;99.90;;;;;;5039175;28;20298;-61
2021/11/06 04:57:39;;;;;;;15.83;10.20;;;4.70;99.90;;;;;;5045025;28;20882;-61
2021/11/06 05:00:10;;;;;;;16.07;9.27;;;4.70;99.90;;;;;;5067725;28;20275;-61
2021/11/06 05:02:40;;;;;;;14.47;9.80;;;4.70;99.90;;;;;;5063114;28;20204;-61
2021/11/06 05:05:09;;;;;;;13.70;9.70;;;4.80;99.90;;;;;;5058126;28;20976;-61
2021/11/06 05:07:38;;;;;;;16.50;9.70;;;4.80;99.90;;;;;;5064244;28;20198;-61
2021/11/06 05:10:07;;;;;;;17.67;9.37;;;4.80;99.90;;;;;;5068531;28;20287;-61
2021/11/06 05:12:36;;;;;;;15.73;9.50;;;4.80;99.90;;;;;;5063562;28;20200;-61
2021/11/06 05:15:06;;;;;;;14.47;9.67;;;4.90;99.90;;;;;;5062008;28;20232;-61
2021/11/06 05:17:34;;;;;;;15.30;9.23;;;4.90;99.90;;;;;;5033309;28;20265;-61
2021/11/06 05:20:05;;;;;;;16.40;9.73;;;4.90;99.90;;;;;;5067670;28;20207;-61
2021/11/06 05:22:34;;;;;;;12.13;9.10;;;4.90;99.90;;;;;;5065854;28;20211;-61
2021/11/06 05:25:04;;;;;;;12.53;8.80;;;4.90;99.90;;;;;;5047854;28;20216;-61
2021/11/06 05:27:33;;;;;;;13.40;9.37;;;5.00;99.90;;;;;;5068507;28;20204;-61
2021/11/06 05:30:03;;;;;;;10.47;8.97;;;5.00;99.90;;;;;;5065259;28;20200;-61
2021/11/06 05:32:32;;;;;;;12.60;8.53;;;5.00;99.90;;;;;;5069692;28;20740;-61
2021/11/06 05:35:01;;;;;;;15.70;9.73;;;5.10;99.90;;;;;;5048581;28;20219;-61
2021/11/06 05:37:31;;;;;;;11.37;8.27;;;5.10;99.90;;;;;;5051224;28;20196;-61
2021/11/06 05:39:59;;;;;;;14.40;8.60;;;5.20;99.90;;;;;;5068188;28;20211;-61
2021/11/06 05:42:28;;;;;;;12.27;8.37;;;5.20;99.90;;;;;;5048592;28;20296;-60
2021/11/06 05:44:56;;;;;;;15.03;9.03;;;5.20;99.90;;;;;;5051706;28;20192;-61
2021/11/06 05:47:24;;;;;;;11.83;9.10;;;5.10;99.90;;;;;;5069686;28;20242;-61
2021/11/06 05:49:57;;;;;;;13.30;9.07;;;5.10;99.90;;;;;;5065399;28;20222;-61
2021/11/06 05:52:35;;;;;;;14.87;8.87;;;5.10;99.90;;;;;;5066058;28;20204;-61
2021/11/06 05:55:05;;;;;;;15.27;8.83;;;5.10;99.90;;;;;;5068180;28;20682;-60
2021/11/06 05:57:35;;;;;;;11.70;9.07;;;5.10;99.90;;;;;;5069348;28;20290;-61
2021/11/06 06:00:07;;;;;;;11.00;8.57;;;5.20;99.90;;;;;;5067402;28;20205;-60
2021/11/06 06:02:35;;;;;;;16.43;8.77;;;5.20;99.90;;;;;;5065973;28;20537;-61
2021/11/06 06:05:04;;;;;;;13.50;9.30;;;5.20;99.90;;;;;;5042847;28;20737;-61
2021/11/06 06:07:34;;;;;;;12.70;8.83;;;5.20;99.90;;;;;;5065931;28;20235;-61
2021/11/06 06:10:05;;;;;;;15.13;9.07;;;5.20;99.90;;;;;;5067679;28;20197;-61
2021/11/06 06:12:34;;;;;;;12.73;8.30;;;5.20;99.90;;;;;;5068403;28;20620;-60
2021/11/06 06:15:03;;;;;;;10.70;8.47;;;5.10;99.90;;;;;;5064033;28;20964;-60
2021/11/06 06:17:31;;;;;;;15.37;8.60;;;5.20;99.90;;;;;;5067242;28;20192;-61
2021/11/06 06:20:02;;;;;;;10.47;8.67;;;5.20;99.90;;;;;;5069726;28;20188;-60
2021/11/06 06:22:31;;;;;;;10.43;8.47;;;5.20;99.90;;;;;;5066044;28;20212;-61
2021/11/06 06:24:59;;;;;;;10.67;8.50;;;5.20;99.90;;;;;;5066229;28;20208;-60
2021/11/06 06:27:29;;;;;;;9.60;8.27;;;5.20;99.90;;;;;;5069647;28;20203;-61
2021/11/06 06:29:58;;;;;;;18.33;9.03;;;5.20;99.90;;;;;;5069266;28;20200;-61
2021/11/06 06:32:27;;;;;;;11.33;8.27;;;5.20;99.90;;;;;;5063768;28;20693;-61
2021/11/06 06:34:55;;;;;;;13.53;9.07;;;5.20;99.90;;;;;;5067215;28;20204;-61
2021/11/06 06:37:24;;;;;;;11.80;8.70;;;5.20;99.90;;;;;;5045484;28;20239;-60
2021/11/06 06:39:53;;;;;;;11.40;8.77;;;5.20;99.90;;;;;;5077224;28;20880;-60
2021/11/06 06:42:23;;;;;;;13.47;9.17;;;5.30;99.90;;;;;;5058459;28;20201;-60
2021/11/06 06:44:54;;;;;;;9.73;8.20;;;5.30;99.90;;;;;;5066349;28;20200;-60
2021/11/06 06:47:22;;;;;;;11.50;8.23;;;5.30;99.90;;;;;;5067668;28;20192;-60
2021/11/06 06:49:51;;;;;;;11.40;8.07;;;5.40;99.90;;;;;;5063880;28;20204;-60
2021/11/06 06:52:19;;;;;;;14.70;8.50;;;5.40;99.90;;;;;;5044623;28;20254;-61
2021/11/06 06:54:48;;;;;;;9.57;8.50;;;5.40;99.90;;;;;;5063867;28;20215;-60
2021/11/06 06:57:17;;;;;;;10.77;8.47;;;5.40;99.90;;;;;;5067481;28;20212;-61
2021/11/06 06:59:45;;;;;;;13.40;8.47;;;5.50;99.90;;;;;;5049062;28;20250;-60
2021/11/06 07:02:16;;;;;;;10.63;8.77;;;5.50;99.90;;;;;;5048054;28;20200;-60
2021/11/06 07:04:44;;;;;;;10.73;8.47;;;5.50;99.90;;;;;;5062599;28;20192;-61
2021/11/06 07:07:13;;;;;;;12.77;8.17;;;5.60;99.90;;;;;;5066634;28;20287;-60
2021/11/06 07:09:42;;;;;;;18.17;8.37;;;5.60;99.90;;;;;;5060545;28;20204;-61
2021/11/06 07:12:15;;;;;;;12.57;8.53;;;5.60;99.90;;;;;;5064174;28;20834;-60
2021/11/06 07:14:45;;;;;;;12.37;8.37;;;5.60;99.90;;;;;;5048675;28;20207;-60
2021/11/06 07:17:15;;;;;;;10.37;8.27;;;5.70;99.90;;;;;;5060965;28;20221;-61
2021/11/06 07:19:43;;;;;;;15.37;7.53;;;5.70;99.90;;;;;;5065898;28;20235;-60
2021/11/06 07:22:12;;;;;;;10.30;7.90;;;5.70;99.90;;;;;;5063121;28;20211;-61
2021/11/06 07:24:41;;;;;;;9.37;7.60;;;5.70;99.90;;;;;;5068302;28;20204;-60
2021/11/06 07:27:10;;;;;;;10.67;8.37;;;5.70;99.90;;;;;;5043328;28;20199;-60
2021/11/06 07:29:39;;;;;;;12.87;8.27;;;5.70;99.90;;;;;;5063267;28;20578;-60
2021/11/06 07:32:08;;;;;;;11.37;8.30;;;5.80;99.90;;;;;;5066754;28;20215;-61
2021/11/06 07:34:38;;;;;;;11.20;8.17;;;5.80;99.90;;;;;;5064213;28;20250;-61
2021/11/06 07:37:07;;;;;;;9.33;7.37;;;5.80;99.90;;;;;;5058195;28;20219;-60
2021/11/06 07:39:36;;;;;;;9.87;8.03;;;5.90;99.90;;;;;;5042554;28;20738;-61
2021/11/06 07:42:05;;;;;;;10.77;8.17;;;5.90;99.90;;;;;;5056251;28;20687;-60
2021/11/06 07:44:34;;;;;;;16.70;8.57;;;5.90;99.90;;;;;;5059850;28;20203;-59
2021/11/06 07:47:03;;;;;;;9.87;7.80;;;5.90;99.90;;;;;;5063803;28;20709;-60
2021/11/06 07:49:31;;;;;;;9.70;7.67;;;5.90;99.90;;;;;;5059919;28;20282;-60
2021/11/06 07:52:01;;;;;;;15.27;7.80;;;6.00;99.90;;;;;;5062299;28;20214;-60
2021/11/06 07:54:30;;;;;;;10.00;8.00;;;6.00;99.90;;;;;;5066784;28;20281;-61
2021/11/06 07:56:59;;;;;;;10.70;8.10;;;6.00;99.90;;;;;;5064974;28;20293;-61
2021/11/06 07:59:28;;;;;;;10.43;8.20;;;6.00;99.90;;;;;;5045086;28;20192;-61
2021/11/06 08:01:57;;;;;;;11.50;8.17;;;6.10;99.90;;;;;;5062752;28;20202;-60
2021/11/06 08:04:26;;;;;;;8.70;7.73;;;6.10;99.90;;;;;;5058318;28;20215;-61
2021/11/06 08:06:54;;;;;;;13.90;8.13;;;6.20;99.90;;;;;;5062003;28;20611;-60
2021/11/06 08:09:24;;;;;;;12.50;8.10;;;6.20;99.90;;;;;;5058655;28;20255;-61
2021/11/06 08:11:53;;;;;;;11.73;7.90;;;6.20;99.90;;;;;;5023030;28;20216;-60
2021/11/06 08:14:21;;;;;;;12.20;7.97;;;6.30;99.90;;;;;;5060106;28;20196;-60
2021/11/06 08:16:50;;;;;;;11.93;8.47;;;6.40;99.90;;;;;;5058029;28;20752;-60
2021/11/06 08:19:19;;;;;;;12.27;7.40;;;6.50;99.90;;;;;;5076761;28;20200;-61
2021/11/06 08:21:48;;;;;;;8.33;7.47;;;6.60;99.90;;;;;;5060438;28;20268;-60
2021/11/06 08:24:16;;;;;;;10.37;7.83;;;6.70;99.90;;;;;;5063221;28;20200;-61
2021/11/06 08:26:47;;;;;;;11.27;7.07;;;6.80;99.90;;;;;;5062070;28;20200;-60
2021/11/06 08:29:16;;;;;;;9.63;6.87;;;6.80;99.90;;;;;;5057503;28;20186;-61
2021/11/06 08:31:45;;;;;;;8.10;6.93;;;6.90;99.90;;;;;;5039678;28;20204;-61
2021/11/06 08:34:13;;;;;;;10.47;7.33;;;7.00;99.90;;;;;;5062351;28;20207;-61
2021/11/06 08:36:42;;;;;;;11.23;7.10;;;7.00;99.90;;;;;;5062697;28;20760;-58
2021/11/06 08:39:11;;;;;;;14.17;7.60;;;7.10;99.90;;;;;;5065825;28;20189;-60
2021/11/06 08:41:40;;;;;;;9.87;7.20;;;7.10;99.90;;;;;;5064219;28;20208;-60
2021/11/06 08:44:10;;;;;;;9.67;6.97;;;7.10;99.90;;;;;;5063571;28;20201;-61
2021/11/06 08:46:41;;;;;;;10.67;7.90;;;7.10;99.90;;;;;;5059818;28;20200;-60
2021/11/06 08:49:09;;;;;;;10.80;7.43;;;7.10;99.90;;;;;;5066784;28;20211;-60
2021/11/06 08:51:38;;;;;;;11.87;7.37;;;7.10;99.90;;;;;;5065083;28;20203;-61
2021/11/06 08:54:07;;;;;;;12.47;7.80;;;7.00;99.90;;;;;;5046615;28;20199;-60
2021/11/06 08:56:36;;;;;;;13.97;7.77;;;6.90;99.90;;;;;;5047409;28;20192;-61
2021/11/06 08:59:04;;;;;;;13.27;8.20;;;7.00;99.90;;;;;;5062560;28;20276;-61
2021/11/06 09:01:34;;;;;;;11.93;7.70;;;7.00;99.90;;;;;;5060733;28;20204;-60
2021/11/06 09:04:04;;;;;;;13.77;7.57;;;7.10;99.90;;;;;;5053715;28;21654;-61
2021/11/06 09:06:34;;;;;;;11.10;7.60;;;7.10;99.90;;;;;;5062422;28;20204;-61
2021/11/06 09:09:03;;;;;;;8.53;7.10;;;7.10;99.90;;;;;;5067240;28;20200;-60
2021/11/06 09:11:32;;;;;;;13.37;7.90;;;7.10;99.90;;;;;;5028494;28;20261;-60
2021/11/06 09:14:01;;;;;;;10.60;7.50;;;7.20;99.90;;;;;;5067348;28;20210;-61
2021/11/06 09:16:29;;;;;;;9.87;7.67;;;7.20;99.90;;;;;;5047987;28;20235;-61
2021/11/06 09:18:59;;;;;;;10.70;8.10;;;7.20;99.90;;;;;;5061759;28;20227;-60
2021/11/06 09:21:29;;;;;;;9.37;7.20;;;7.30;99.90;;;;;;5064658;28;20626;-58
2021/11/06 09:24:02;;;;;;;10.70;7.67;;;7.40;99.90;;;;;;5068708;28;20200;-61
2021/11/06 09:26:35;;;;;;;13.30;7.67;;;7.50;99.90;;;;;;5066686;28;20201;-60
2021/11/06 09:29:04;;;;;;;9.53;7.00;;;7.60;99.90;;;;;;5066383;28;20228;-61
2021/11/06 09:31:33;;;;;;;9.20;7.03;;;7.70;99.90;;;;;;5060159;28;20674;-61
2021/11/06 09:34:04;;;;;;;15.10;7.00;;;7.70;99.90;;;;;;5069064;28;20204;-60
2021/11/06 09:36:33;;;;;;;8.13;7.33;;;7.90;99.90;;;;;;5059606;28;20815;-61
2021/11/06 09:39:02;;;;;;;13.27;8.27;;;8.00;99.90;;;;;;5050944;28;20253;-61
2021/11/06 09:41:31;;;;;;;10.90;7.37;;;8.10;99.90;;;;;;5072205;28;20278;-61
2021/11/06 09:44:00;;;;;;;10.97;8.20;;;8.30;99.90;;;;;;5071697;28;20196;-61
2021/11/06 09:46:29;;;;;;;11.93;7.73;;;8.40;99.90;;;;;;5072420;28;20644;-61
2021/11/06 09:48:57;;;;;;;12.53;7.77;;;8.40;99.90;;;;;;5070010;28;20200;-61
2021/11/06 09:51:27;;;;;;;10.73;7.20;;;8.50;99.90;;;;;;5071946;28;20291;-61
2021/11/06 09:53:56;;;;;;;9.80;8.20;;;8.50;99.90;;;;;;5050326;28;20237;-61
2021/11/06 09:56:28;;;;;;;12.23;7.13;;;8.50;99.90;;;;;;5050879;28;20199;-61
2021/11/06 09:59:00;;;;;;;11.03;7.50;;;8.50;99.90;;;;;;5069873;28;20254;-61
2021/11/06 10:01:30;;;;;;;7.70;6.90;;;8.60;99.90;;;;;;5052613;28;20227;-61
2021/11/06 10:04:00;;;;;;;8.00;7.20;;;8.60;99.90;;;;;;5042945;28;20235;-60
2021/11/06 10:06:30;;;;;;;10.07;7.67;;;8.70;99.90;;;;;;5065996;28;20212;-61
2021/11/06 10:08:59;;;;;;;9.80;6.90;;;8.70;99.90;;;;;;5062682;28;20199;-61
2021/11/06 10:11:29;;;;;;;9.93;7.37;;;8.70;99.90;;;;;;5071525;28;20200;-61
2021/11/06 10:14:00;;;;;;;12.97;6.93;;;8.80;99.90;;;;;;5063393;28;20575;-61
2021/11/06 10:16:39;;;;;;;9.97;6.73;;;8.90;99.90;;;;;;5071022;28;20231;-61
2021/11/06 10:19:10;;;;;;;9.83;7.53;;;9.10;99.90;;;;;;5060004;28;20207;-60
2021/11/06 10:21:43;;;;;;;11.03;7.80;;;9.10;99.90;;;;;;5061999;28;20297;-61
2021/11/06 10:24:13;;;;;;;13.17;7.13;;;9.10;99.90;;;;;;5064521;28;20271;-61
2021/11/06 10:26:42;;;;;;;10.40;7.33;;;9.20;99.90;;;;;;5071590;28;20230;-61
2021/11/06 10:29:12;;;;;;;12.20;7.37;;;9.20;99.90;;;;;;5081231;28;20290;-61
2021/11/06 10:32:05;;;;;;;9.60;7.50;;;9.20;99.90;;;;;;5070934;28;20230;-61
2021/11/06 10:34:36;;;;;;;11.63;7.50;;;9.20;99.90;;;;;;5046929;28;20647;-61
2021/11/06 10:37:11;;;;;;;11.53;7.30;;;9.20;99.90;;;;;;5070253;28;20188;-61
2021/11/06 10:39:54;;;;;;;15.23;7.83;;;9.10;99.90;;;;;;5033815;28;20628;-61
2021/11/06 10:42:23;;;;;;;10.27;7.80;;;9.00;99.90;;;;;;5045680;28;20207;-61
2021/11/06 10:44:52;;;;;;;9.00;7.57;;;9.00;99.90;;;;;;5064434;28;20239;-61
2021/11/06 10:47:20;;;;;;;13.70;9.10;;;9.00;99.90;;;;;;5071109;28;20207;-60
2021/11/06 10:49:50;;;;;;;11.07;9.00;;;8.90;99.90;;;;;;5065050;28;20188;-60
2021/11/06 10:52:20;;;;;;;15.33;9.50;;;8.70;99.90;;;;;;5068837;28;20214;-61
2021/11/06 10:55:08;;;;;;;14.43;9.93;;;8.50;99.90;;;;;;5071154;28;20199;-59
2021/11/06 10:57:37;;;;;;;15.13;10.87;;;8.40;99.90;;;;;;5070837;28;20219;-60
2021/11/06 11:00:14;;;;;;;16.33;11.17;;;8.30;99.90;;;;;;5063245;28;20767;-60
2021/11/06 11:02:43;;;;;;;16.37;11.30;;;8.20;99.90;;;;;;5069472;28;20196;-61
2021/11/06 11:05:34;;;;;;;16.63;11.57;;;8.10;99.90;;;;;;5059986;28;20200;-61
2021/11/06 11:08:06;;;;;;;15.20;11.20;;;8.10;99.90;;;;;;5069378;28;20192;-61
2021/11/06 11:10:36;;;;;;;17.17;11.90;;;8.10;99.90;;;;;;5070502;28;20663;-59
2021/11/06 11:13:09;;;;;;;18.87;11.33;;;8.00;99.90;;;;;;5065117;28;20192;-60
2021/11/06 11:15:39;;;;;;;14.67;11.43;;;8.10;99.90;;;;;;5065634;28;20282;-61
2021/11/06 11:18:07;;;;;;;17.17;11.13;;;8.10;99.90;;;;;;5069398;28;20224;-61
2021/11/06 11:20:39;;;;;;;18.53;12.13;;;8.20;99.90;;;;;;5048394;28;20200;-61
2021/11/06 11:23:14;;;;;;;18.27;12.60;;;8.20;99.90;;;;;;5069141;28;20219;-61
2021/11/06 11:25:44;;;;;;;15.27;10.90;;;8.30;99.90;;;;;;5052386;28;20195;-61
2021/11/06 11:28:13;;;;;;;15.60;11.30;;;8.50;99.90;;;;;;5067726;28;20874;-61
2021/11/06 11:30:42;;;;;;;15.43;10.43;;;8.60;99.90;;;;;;5064031;28;20679;-61
2021/11/06 11:33:32;;;;;;;16.97;11.10;;;8.60;99.90;;;;;;5062016;28;20196;-61
2021/11/06 11:36:03;;;;;;;16.33;10.53;;;8.70;99.90;;;;;;5064658;28;20196;-61
2021/11/06 11:38:35;;;;;;;16.67;10.60;;;8.80;99.90;;;;;;5057690;28;20221;-61
2021/11/06 11:41:22;;;;;;;16.13;10.70;;;8.80;99.90;;;;;;5041482;28;20675;-60
2021/11/06 11:44:07;;;;;;;15.60;10.37;;;8.80;99.90;;;;;;5071947;28;20285;-59
2021/11/06 11:46:41;;;;;;;16.10;10.50;;;8.80;99.90;;;;;;5051258;28;20686;-61
2021/11/06 11:49:11;;;;;;;11.53;9.73;;;8.90;99.90;;;;;;5068921;28;20217;-61
2021/11/06 11:51:40;;;;;;;13.33;10.10;;;8.90;99.90;;;;;;5068858;28;20211;-61
2021/11/06 11:54:12;;;;;;;14.80;10.00;;;9.00;99.90;;;;;;5058645;28;20207;-61
2021/11/06 11:56:41;;;;;;;14.23;9.97;;;9.10;99.90;;;;;;5060511;28;20196;-61
2021/11/06 11:59:33;;;;;;;14.73;10.13;;;9.20;99.90;;;;;;5068167;28;20243;-61
2021/11/06 12:02:20;;;;;;;11.97;9.93;;;9.30;99.90;;;;;;5067554;28;20194;-61
2021/11/06 12:05:31;;;;;;;12.60;9.97;;;9.40;99.90;;;;;;5063626;28;20226;-60
2021/11/06 12:08:34;;;;;;;13.43;10.00;;;9.40;99.90;;;;;;5066748;28;20199;-61
2021/11/06 12:11:24;;;;;;;12.03;10.30;;;9.40;99.90;;;;;;5063308;28;20276;-60
2021/11/06 12:13:58;;;;;;;16.77;11.37;;;9.30;99.90;;;;;;5064857;28;20235;-61
2021/11/06 12:16:43;;;;;;;13.90;10.87;;;9.30;99.90;;;;;;5068665;28;20518;-61
2021/11/06 12:19:13;;;;;;;16.07;10.77;;;9.20;99.90;;;;;;5063929;28;20265;-61
2021/11/06 12:21:44;;;;;;;15.20;11.27;;;9.20;99.90;;;;;;5067956;28;20456;-61
2021/11/06 12:24:29;;;;;;;16.47;11.37;;;9.20;99.90;;;;;;5052236;28;20742;-61
2021/11/06 12:27:03;;;;;;;22.17;11.93;;;9.20;99.90;;;;;;5066706;28;20191;-61
2021/11/06 12:29:34;;;;;;;16.87;12.70;;;9.20;99.90;;;;;;5054389;28;20221;-60
2021/11/06 12:32:32;;;;;;;19.13;12.80;;;9.10;99.90;;;;;;5060826;28;20200;-61
2021/11/06 12:35:18;;;;;;;18.93;12.10;;;9.00;99.90;;;;;;5061260;28;20227;-61
2021/11/06 12:37:57;;;;;;;17.07;13.40;;;9.00;99.90;;;;;;5061164;28;20750;-61
2021/11/06 12:40:34;;;;;;;19.83;13.70;;;9.00;99.90;;;;;;5037787;28;20710;-61
2021/11/06 12:43:26;;;;;;;17.70;13.30;;;9.10;99.90;;;;;;5057339;28;20199;-61
2021/11/06 12:45:58;;;;;;;19.50;13.53;;;9.10;99.90;;;;;;5048549;28;20206;-60
2021/11/06 12:48:33;;;;;;;18.33;14.13;;;9.10;99.90;;;;;;5047205;28;20201;-61
2021/11/06 12:51:06;;;;;;;40.37;24.77;;;9.20;99.90;;;;;;5042584;28;20188;-61
2021/11/06 12:53:37;;;;;;;40.13;26.50;;;9.20;99.90;;;;;;5060254;28;20237;-61
2021/11/06 12:56:09;;;;;;;33.03;21.77;;;9.40;99.90;;;;;;5059317;28;20212;-61
2021/11/06 12:58:39;;;;;;;45.17;31.60;;;9.60;99.90;;;;;;5061186;28;20203;-61
2021/11/06 13:01:20;;;;;;;75.73;53.00;;;9.60;99.90;;;;;;5059383;28;20196;-61